sensor_id;sensor_type;location;lat;lon;timestamp;P1;durP1;ratioP1;P2;durP2;ratioP2
25319;SDS011;13256;49.012;8.610;2023-02-24T00:00:27;31.35;;;14.60;;
25319;SDS011;13256;49.012;8.610;2023-02-24T00:03:03;24.52;;;13.77;;
25319;SDS011;13256;49.012;8.610;2023-02-24T00:05:39;33.00;;;15.38;;
25319;SDS011;13256;49.012;8.610;2023-02-24T00:08:07;28.17;;;14.82;;
25319;SDS011;13256;49.012;8.610;2023-02-24T00:10:36;30.75;;;14.85;;
25319;SDS011;13256;49.012;8.610;2023-02-24T00:13:17;29.58;;;14.23;;
25319;SDS011;13256;49.012;8.610;2023-02-24T00:16:01;33.60;;;15.35;;
25319;SDS011;13256;49.012;8.610;2023-02-24T00:18:30;30.35;;;14.80;;
25319;SDS011;13256;49.012;8.610;2023-02-24T00:21:05;32.40;;;14.38;;
25319;SDS011;13256;49.012;8.610;2023-02-24T00:23:38;35.88;;;15.50;;
25319;SDS011;13256;49.012;8.610;2023-02-24T00:26:09;29.08;;;15.60;;
25319;SDS011;13256;49.012;8.610;2023-02-24T00:28:46;30.00;;;14.68;;
25319;SDS011;13256;49.012;8.610;2023-02-24T00:31:19;30.30;;;14.52;;
25319;SDS011;13256;49.012;8.610;2023-02-24T00:33:53;26.55;;;14.07;;
25319;SDS011;13256;49.012;8.610;2023-02-24T00:36:22;31.10;;;15.15;;
25319;SDS011;13256;49.012;8.610;2023-02-24T00:38:56;31.77;;;14.57;;
25319;SDS011;13256;49.012;8.610;2023-02-24T00:41:32;30.48;;;15.43;;
25319;SDS011;13256;49.012;8.610;2023-02-24T00:44:03;29.05;;;14.32;;
25319;SDS011;13256;49.012;8.610;2023-02-24T00:46:54;32.20;;;15.77;;
25319;SDS011;13256;49.012;8.610;2023-02-24T00:49:25;32.00;;;14.32;;
25319;SDS011;13256;49.012;8.610;2023-02-24T00:51:57;31.67;;;15.40;;
25319;SDS011;13256;49.012;8.610;2023-02-24T00:55:00;32.42;;;16.40;;
25319;SDS011;13256;49.012;8.610;2023-02-24T00:57:44;33.15;;;15.15;;
25319;SDS011;13256;49.012;8.610;2023-02-24T01:00:11;31.92;;;14.45;;
25319;SDS011;13256;49.012;8.610;2023-02-24T01:02:44;26.67;;;14.40;;
25319;SDS011;13256;49.012;8.610;2023-02-24T01:05:13;31.60;;;15.32;;
25319;SDS011;13256;49.012;8.610;2023-02-24T01:07:40;30.25;;;15.48;;
25319;SDS011;13256;49.012;8.610;2023-02-24T01:10:07;34.13;;;15.88;;
25319;SDS011;13256;49.012;8.610;2023-02-24T01:12:37;32.72;;;15.52;;
25319;SDS011;13256;49.012;8.610;2023-02-24T01:15:18;31.50;;;14.93;;
25319;SDS011;13256;49.012;8.610;2023-02-24T01:18:17;33.97;;;15.43;;
25319;SDS011;13256;49.012;8.610;2023-02-24T01:20:45;33.90;;;15.45;;
25319;SDS011;13256;49.012;8.610;2023-02-24T01:23:16;31.85;;;15.50;;
25319;SDS011;13256;49.012;8.610;2023-02-24T01:25:45;36.83;;;16.15;;
25319;SDS011;13256;49.012;8.610;2023-02-24T01:28:16;37.10;;;16.98;;
25319;SDS011;13256;49.012;8.610;2023-02-24T01:30:47;34.72;;;17.02;;
25319;SDS011;13256;49.012;8.610;2023-02-24T01:33:14;34.95;;;15.65;;
25319;SDS011;13256;49.012;8.610;2023-02-24T01:35:47;33.25;;;15.68;;
25319;SDS011;13256;49.012;8.610;2023-02-24T01:41:48;31.92;;;15.77;;
25319;SDS011;13256;49.012;8.610;2023-02-24T01:46:54;35.55;;;16.38;;
25319;SDS011;13256;49.012;8.610;2023-02-24T01:49:33;35.90;;;16.02;;
25319;SDS011;13256;49.012;8.610;2023-02-24T01:55:17;34.63;;;15.95;;
25319;SDS011;13256;49.012;8.610;2023-02-24T01:57:50;40.17;;;16.08;;
25319;SDS011;13256;49.012;8.610;2023-02-24T02:00:22;33.47;;;15.75;;
25319;SDS011;13256;49.012;8.610;2023-02-24T02:03:30;38.33;;;16.30;;
25319;SDS011;13256;49.012;8.610;2023-02-24T02:06:08;47.17;;;18.35;;
25319;SDS011;13256;49.012;8.610;2023-02-24T02:08:39;36.22;;;16.67;;
25319;SDS011;13256;49.012;8.610;2023-02-24T02:11:10;39.43;;;17.17;;
25319;SDS011;13256;49.012;8.610;2023-02-24T02:13:41;38.08;;;17.20;;
25319;SDS011;13256;49.012;8.610;2023-02-24T02:18:56;38.13;;;16.35;;
25319;SDS011;13256;49.012;8.610;2023-02-24T02:22:30;37.40;;;16.17;;
25319;SDS011;13256;49.012;8.610;2023-02-24T02:36:31;42.95;;;16.70;;
25319;SDS011;13256;49.012;8.610;2023-02-24T02:39:30;36.05;;;16.23;;
25319;SDS011;13256;49.012;8.610;2023-02-24T02:42:32;38.17;;;16.42;;
25319;SDS011;13256;49.012;8.610;2023-02-24T02:45:21;44.97;;;18.65;;
25319;SDS011;13256;49.012;8.610;2023-02-24T02:48:25;41.55;;;16.55;;
25319;SDS011;13256;49.012;8.610;2023-02-24T02:51:09;46.42;;;18.13;;
25319;SDS011;13256;49.012;8.610;2023-02-24T02:56:47;43.70;;;17.03;;
25319;SDS011;13256;49.012;8.610;2023-02-24T02:59:28;51.03;;;18.45;;
25319;SDS011;13256;49.012;8.610;2023-02-24T03:02:00;49.17;;;20.75;;
25319;SDS011;13256;49.012;8.610;2023-02-24T03:04:45;47.83;;;18.45;;
25319;SDS011;13256;49.012;8.610;2023-02-24T03:07:25;49.03;;;18.17;;
25319;SDS011;13256;49.012;8.610;2023-02-24T03:10:07;51.13;;;20.42;;
25319;SDS011;13256;49.012;8.610;2023-02-24T03:12:46;51.70;;;19.33;;
25319;SDS011;13256;49.012;8.610;2023-02-24T03:15:23;51.00;;;19.65;;
25319;SDS011;13256;49.012;8.610;2023-02-24T03:18:03;50.55;;;20.17;;
25319;SDS011;13256;49.012;8.610;2023-02-24T03:23:44;48.75;;;18.35;;
25319;SDS011;13256;49.012;8.610;2023-02-24T03:26:55;52.85;;;19.95;;
25319;SDS011;13256;49.012;8.610;2023-02-24T03:29:50;54.72;;;20.75;;
25319;SDS011;13256;49.012;8.610;2023-02-24T03:32:55;54.67;;;20.67;;
25319;SDS011;13256;49.012;8.610;2023-02-24T03:35:31;52.08;;;19.45;;
25319;SDS011;13256;49.012;8.610;2023-02-24T03:38:06;50.05;;;19.75;;
25319;SDS011;13256;49.012;8.610;2023-02-24T03:40:38;54.67;;;21.20;;
25319;SDS011;13256;49.012;8.610;2023-02-24T03:45:59;52.05;;;20.05;;
25319;SDS011;13256;49.012;8.610;2023-02-24T03:48:31;57.90;;;21.30;;
25319;SDS011;13256;49.012;8.610;2023-02-24T03:51:01;56.88;;;20.77;;
25319;SDS011;13256;49.012;8.610;2023-02-24T03:53:55;58.65;;;21.38;;
25319;SDS011;13256;49.012;8.610;2023-02-24T04:10:36;64.72;;;23.30;;
25319;SDS011;13256;49.012;8.610;2023-02-24T04:16:29;62.47;;;21.33;;
25319;SDS011;13256;49.012;8.610;2023-02-24T04:19:23;60.47;;;22.38;;
25319;SDS011;13256;49.012;8.610;2023-02-24T04:21:58;61.03;;;22.52;;
25319;SDS011;13256;49.012;8.610;2023-02-24T04:24:27;65.00;;;21.75;;
25319;SDS011;13256;49.012;8.610;2023-02-24T04:26:59;58.22;;;20.55;;
25319;SDS011;13256;49.012;8.610;2023-02-24T04:29:42;58.80;;;21.17;;
25319;SDS011;13256;49.012;8.610;2023-02-24T04:32:20;52.75;;;21.67;;
25319;SDS011;13256;49.012;8.610;2023-02-24T04:34:50;59.92;;;21.27;;
25319;SDS011;13256;49.012;8.610;2023-02-24T04:37:18;65.15;;;25.17;;
25319;SDS011;13256;49.012;8.610;2023-02-24T04:40:03;60.22;;;20.05;;
25319;SDS011;13256;49.012;8.610;2023-02-24T04:42:42;82.00;;;26.33;;
25319;SDS011;13256;49.012;8.610;2023-02-24T04:45:18;71.85;;;26.25;;
25319;SDS011;13256;49.012;8.610;2023-02-24T04:47:55;69.80;;;23.70;;
25319;SDS011;13256;49.012;8.610;2023-02-24T04:50:28;64.93;;;23.38;;
25319;SDS011;13256;49.012;8.610;2023-02-24T04:53:11;58.03;;;21.77;;
25319;SDS011;13256;49.012;8.610;2023-02-24T04:58:36;65.40;;;22.88;;
25319;SDS011;13256;49.012;8.610;2023-02-24T05:01:14;62.70;;;21.33;;
25319;SDS011;13256;49.012;8.610;2023-02-24T05:04:13;64.50;;;23.70;;
25319;SDS011;13256;49.012;8.610;2023-02-24T05:06:47;59.95;;;21.75;;
25319;SDS011;13256;49.012;8.610;2023-02-24T05:18:20;63.28;;;21.13;;
25319;SDS011;13256;49.012;8.610;2023-02-24T05:27:35;61.55;;;21.50;;
25319;SDS011;13256;49.012;8.610;2023-02-24T05:32:56;59.92;;;22.48;;
25319;SDS011;13256;49.012;8.610;2023-02-24T05:35:27;68.28;;;23.35;;
25319;SDS011;13256;49.012;8.610;2023-02-24T05:38:04;81.45;;;29.48;;
25319;SDS011;13256;49.012;8.610;2023-02-24T05:40:35;85.28;;;30.70;;
25319;SDS011;13256;49.012;8.610;2023-02-24T05:43:23;67.60;;;24.42;;
25319;SDS011;13256;49.012;8.610;2023-02-24T05:45:51;68.80;;;23.00;;
25319;SDS011;13256;49.012;8.610;2023-02-24T05:48:18;62.35;;;22.67;;
25319;SDS011;13256;49.012;8.610;2023-02-24T05:51:09;62.90;;;22.08;;
25319;SDS011;13256;49.012;8.610;2023-02-24T05:53:38;62.42;;;23.10;;
25319;SDS011;13256;49.012;8.610;2023-02-24T05:56:11;64.97;;;22.25;;
25319;SDS011;13256;49.012;8.610;2023-02-24T05:58:46;56.85;;;21.10;;
25319;SDS011;13256;49.012;8.610;2023-02-24T06:01:18;64.95;;;22.63;;
25319;SDS011;13256;49.012;8.610;2023-02-24T06:03:45;62.15;;;22.23;;
25319;SDS011;13256;49.012;8.610;2023-02-24T06:06:22;60.72;;;20.65;;
25319;SDS011;13256;49.012;8.610;2023-02-24T06:08:51;68.60;;;22.75;;
25319;SDS011;13256;49.012;8.610;2023-02-24T06:22:19;54.17;;;18.58;;
25319;SDS011;13256;49.012;8.610;2023-02-24T06:24:56;59.35;;;20.45;;
25319;SDS011;13256;49.012;8.610;2023-02-24T06:27:24;57.72;;;21.05;;
25319;SDS011;13256;49.012;8.610;2023-02-24T06:29:56;60.55;;;22.23;;
25319;SDS011;13256;49.012;8.610;2023-02-24T06:32:29;59.15;;;21.33;;
25319;SDS011;13256;49.012;8.610;2023-02-24T06:34:56;54.95;;;19.77;;
25319;SDS011;13256;49.012;8.610;2023-02-24T06:37:27;60.92;;;20.27;;
25319;SDS011;13256;49.012;8.610;2023-02-24T06:39:58;63.45;;;21.08;;
25319;SDS011;13256;49.012;8.610;2023-02-24T06:42:25;64.60;;;20.92;;
25319;SDS011;13256;49.012;8.610;2023-02-24T06:44:56;67.70;;;19.95;;
25319;SDS011;13256;49.012;8.610;2023-02-24T06:47:34;62.53;;;20.17;;
25319;SDS011;13256;49.012;8.610;2023-02-24T06:50:01;64.70;;;22.95;;
25319;SDS011;13256;49.012;8.610;2023-02-24T06:52:32;65.03;;;21.63;;
25319;SDS011;13256;49.012;8.610;2023-02-24T06:55:06;62.83;;;20.77;;
25319;SDS011;13256;49.012;8.610;2023-02-24T06:57:56;65.68;;;21.27;;
25319;SDS011;13256;49.012;8.610;2023-02-24T07:00:32;68.18;;;21.63;;
25319;SDS011;13256;49.012;8.610;2023-02-24T07:03:22;61.22;;;20.95;;
25319;SDS011;13256;49.012;8.610;2023-02-24T07:06:35;58.03;;;20.02;;
25319;SDS011;13256;49.012;8.610;2023-02-24T07:09:34;82.85;;;26.85;;
25319;SDS011;13256;49.012;8.610;2023-02-24T07:12:04;79.95;;;25.38;;
25319;SDS011;13256;49.012;8.610;2023-02-24T07:14:34;59.72;;;21.13;;
25319;SDS011;13256;49.012;8.610;2023-02-24T07:17:04;58.30;;;21.85;;
25319;SDS011;13256;49.012;8.610;2023-02-24T07:19:31;65.68;;;21.33;;
25319;SDS011;13256;49.012;8.610;2023-02-24T07:22:11;72.40;;;23.50;;
25319;SDS011;13256;49.012;8.610;2023-02-24T07:24:51;97.10;;;31.65;;
25319;SDS011;13256;49.012;8.610;2023-02-24T07:27:32;71.30;;;25.90;;
25319;SDS011;13256;49.012;8.610;2023-02-24T07:30:15;67.22;;;22.70;;
25319;SDS011;13256;49.012;8.610;2023-02-24T07:32:48;57.40;;;20.25;;
25319;SDS011;13256;49.012;8.610;2023-02-24T07:35:16;64.55;;;21.63;;
25319;SDS011;13256;49.012;8.610;2023-02-24T07:40:56;68.13;;;21.50;;
25319;SDS011;13256;49.012;8.610;2023-02-24T07:43:28;62.53;;;21.42;;
25319;SDS011;13256;49.012;8.610;2023-02-24T07:51:43;59.75;;;19.48;;
25319;SDS011;13256;49.012;8.610;2023-02-24T08:00:18;65.30;;;22.08;;
25319;SDS011;13256;49.012;8.610;2023-02-24T08:02:59;67.43;;;22.45;;
25319;SDS011;13256;49.012;8.610;2023-02-24T08:05:26;69.50;;;23.38;;
25319;SDS011;13256;49.012;8.610;2023-02-24T08:07:55;67.93;;;25.08;;
25319;SDS011;13256;49.012;8.610;2023-02-24T08:10:23;69.30;;;24.75;;
25319;SDS011;13256;49.012;8.610;2023-02-24T08:16:07;71.65;;;21.70;;
25319;SDS011;13256;49.012;8.610;2023-02-24T08:21:42;72.38;;;21.77;;
25319;SDS011;13256;49.012;8.610;2023-02-24T08:25:07;63.30;;;21.42;;
25319;SDS011;13256;49.012;8.610;2023-02-24T08:27:52;58.08;;;20.05;;
25319;SDS011;13256;49.012;8.610;2023-02-24T08:31:01;62.95;;;20.20;;
25319;SDS011;13256;49.012;8.610;2023-02-24T08:36:15;52.80;;;18.10;;
25319;SDS011;13256;49.012;8.610;2023-02-24T08:39:40;57.78;;;18.13;;
25319;SDS011;13256;49.012;8.610;2023-02-24T08:42:36;52.60;;;18.40;;
25319;SDS011;13256;49.012;8.610;2023-02-24T08:45:03;52.33;;;18.42;;
25319;SDS011;13256;49.012;8.610;2023-02-24T08:47:32;54.00;;;17.77;;
25319;SDS011;13256;49.012;8.610;2023-02-24T08:50:06;49.28;;;17.65;;
25319;SDS011;13256;49.012;8.610;2023-02-24T08:55:19;51.53;;;18.13;;
25319;SDS011;13256;49.012;8.610;2023-02-24T08:57:52;49.08;;;18.10;;
25319;SDS011;13256;49.012;8.610;2023-02-24T09:06:17;58.08;;;19.50;;
25319;SDS011;13256;49.012;8.610;2023-02-24T09:08:57;53.90;;;19.77;;
25319;SDS011;13256;49.012;8.610;2023-02-24T09:11:54;60.38;;;18.95;;
25319;SDS011;13256;49.012;8.610;2023-02-24T09:14:29;57.35;;;18.83;;
25319;SDS011;13256;49.012;8.610;2023-02-24T09:23:26;61.33;;;21.30;;
25319;SDS011;13256;49.012;8.610;2023-02-24T09:25:57;57.95;;;18.33;;
25319;SDS011;13256;49.012;8.610;2023-02-24T09:28:44;55.95;;;18.25;;
25319;SDS011;13256;49.012;8.610;2023-02-24T09:31:40;63.05;;;20.23;;
25319;SDS011;13256;49.012;8.610;2023-02-24T09:34:28;51.10;;;17.85;;
25319;SDS011;13256;49.012;8.610;2023-02-24T09:40:33;54.50;;;19.63;;
25319;SDS011;13256;49.012;8.610;2023-02-24T09:43:48;59.28;;;20.15;;
25319;SDS011;13256;49.012;8.610;2023-02-24T09:46:42;53.25;;;18.30;;
25319;SDS011;13256;49.012;8.610;2023-02-24T09:49:59;57.55;;;18.60;;
25319;SDS011;13256;49.012;8.610;2023-02-24T09:52:48;64.40;;;19.80;;
25319;SDS011;13256;49.012;8.610;2023-02-24T09:55:41;48.55;;;17.65;;
25319;SDS011;13256;49.012;8.610;2023-02-24T10:01:18;47.17;;;17.25;;
25319;SDS011;13256;49.012;8.610;2023-02-24T10:03:58;51.67;;;18.10;;
25319;SDS011;13256;49.012;8.610;2023-02-24T10:06:53;51.88;;;17.13;;
25319;SDS011;13256;49.012;8.610;2023-02-24T10:12:08;44.15;;;16.67;;
25319;SDS011;13256;49.012;8.610;2023-02-24T10:15:13;52.53;;;19.13;;
25319;SDS011;13256;49.012;8.610;2023-02-24T10:17:56;46.05;;;17.02;;
25319;SDS011;13256;49.012;8.610;2023-02-24T10:26:55;47.13;;;16.17;;
25319;SDS011;13256;49.012;8.610;2023-02-24T10:38:23;46.30;;;16.35;;
25319;SDS011;13256;49.012;8.610;2023-02-24T10:41:00;37.08;;;14.68;;
25319;SDS011;13256;49.012;8.610;2023-02-24T10:43:55;39.70;;;14.40;;
25319;SDS011;13256;49.012;8.610;2023-02-24T10:49:26;37.88;;;13.60;;
25319;SDS011;13256;49.012;8.610;2023-02-24T10:51:55;47.85;;;15.75;;
25319;SDS011;13256;49.012;8.610;2023-02-24T10:55:56;40.42;;;15.43;;
25319;SDS011;13256;49.012;8.610;2023-02-24T10:59:45;35.35;;;13.15;;
25319;SDS011;13256;49.012;8.610;2023-02-24T11:12:09;43.42;;;14.68;;
25319;SDS011;13256;49.012;8.610;2023-02-24T11:23:27;42.75;;;14.73;;
25319;SDS011;13256;49.012;8.610;2023-02-24T11:44:29;39.70;;;16.23;;
25319;SDS011;13256;49.012;8.610;2023-02-24T12:05:09;41.97;;;15.77;;
25319;SDS011;13256;49.012;8.610;2023-02-24T12:11:01;41.75;;;16.08;;
25319;SDS011;13256;49.012;8.610;2023-02-24T12:23:11;40.72;;;14.77;;
25319;SDS011;13256;49.012;8.610;2023-02-24T12:26:14;42.17;;;15.55;;
25319;SDS011;13256;49.012;8.610;2023-02-24T12:29:08;44.15;;;15.65;;
25319;SDS011;13256;49.012;8.610;2023-02-24T12:41:08;49.42;;;15.80;;
25319;SDS011;13256;49.012;8.610;2023-02-24T12:48:10;39.60;;;14.70;;
25319;SDS011;13256;49.012;8.610;2023-02-24T12:56:51;53.88;;;16.23;;
25319;SDS011;13256;49.012;8.610;2023-02-24T13:03:27;42.00;;;15.05;;
25319;SDS011;13256;49.012;8.610;2023-02-24T13:10:18;43.72;;;16.73;;
25319;SDS011;13256;49.012;8.610;2023-02-24T13:16:08;47.58;;;16.95;;
25319;SDS011;13256;49.012;8.610;2023-02-24T13:28:22;44.55;;;16.63;;
25319;SDS011;13256;49.012;8.610;2023-02-24T13:34:13;35.50;;;14.35;;
25319;SDS011;13256;49.012;8.610;2023-02-24T13:37:02;46.10;;;15.75;;
25319;SDS011;13256;49.012;8.610;2023-02-24T13:47:37;38.63;;;15.45;;
25319;SDS011;13256;49.012;8.610;2023-02-24T14:05:58;42.95;;;16.70;;
25319;SDS011;13256;49.012;8.610;2023-02-24T14:08:45;39.78;;;16.25;;
25319;SDS011;13256;49.012;8.610;2023-02-24T14:11:27;41.58;;;16.77;;
25319;SDS011;13256;49.012;8.610;2023-02-24T14:14:04;43.45;;;14.98;;
25319;SDS011;13256;49.012;8.610;2023-02-24T14:16:39;46.33;;;16.77;;
25319;SDS011;13256;49.012;8.610;2023-02-24T14:19:11;43.58;;;16.02;;
25319;SDS011;13256;49.012;8.610;2023-02-24T14:21:48;45.00;;;17.33;;
25319;SDS011;13256;49.012;8.610;2023-02-24T14:24:23;42.38;;;16.48;;
25319;SDS011;13256;49.012;8.610;2023-02-24T14:26:57;39.20;;;17.30;;
25319;SDS011;13256;49.012;8.610;2023-02-24T14:29:32;45.60;;;17.65;;
25319;SDS011;13256;49.012;8.610;2023-02-24T14:32:18;40.08;;;16.10;;
25319;SDS011;13256;49.012;8.610;2023-02-24T14:34:52;42.53;;;15.93;;
25319;SDS011;13256;49.012;8.610;2023-02-24T14:37:20;37.78;;;14.57;;
25319;SDS011;13256;49.012;8.610;2023-02-24T14:39:56;42.90;;;14.88;;
25319;SDS011;13256;49.012;8.610;2023-02-24T14:42:30;40.75;;;15.43;;
25319;SDS011;13256;49.012;8.610;2023-02-24T14:44:58;45.15;;;15.07;;
25319;SDS011;13256;49.012;8.610;2023-02-24T14:47:25;39.53;;;14.50;;
25319;SDS011;13256;49.012;8.610;2023-02-24T14:49:56;32.13;;;12.82;;
25319;SDS011;13256;49.012;8.610;2023-02-24T14:55:05;30.15;;;13.43;;
25319;SDS011;13256;49.012;8.610;2023-02-24T14:57:43;39.25;;;14.93;;
25319;SDS011;13256;49.012;8.610;2023-02-24T15:00:35;36.25;;;15.10;;
25319;SDS011;13256;49.012;8.610;2023-02-24T15:03:14;30.17;;;13.63;;
25319;SDS011;13256;49.012;8.610;2023-02-24T15:06:10;35.00;;;13.88;;
25319;SDS011;13256;49.012;8.610;2023-02-24T15:08:49;31.50;;;12.95;;
25319;SDS011;13256;49.012;8.610;2023-02-24T15:11:24;32.10;;;12.02;;
25319;SDS011;13256;49.012;8.610;2023-02-24T15:13:56;31.15;;;11.73;;
25319;SDS011;13256;49.012;8.610;2023-02-24T15:19:02;27.60;;;11.73;;
25319;SDS011;13256;49.012;8.610;2023-02-24T15:28:29;27.08;;;11.20;;
25319;SDS011;13256;49.012;8.610;2023-02-24T15:34:13;29.33;;;11.63;;
25319;SDS011;13256;49.012;8.610;2023-02-24T15:37:49;32.92;;;11.68;;
25319;SDS011;13256;49.012;8.610;2023-02-24T15:40:25;25.35;;;12.13;;
25319;SDS011;13256;49.012;8.610;2023-02-24T15:45:59;29.88;;;11.77;;
25319;SDS011;13256;49.012;8.610;2023-02-24T15:48:27;26.45;;;11.75;;
25319;SDS011;13256;49.012;8.610;2023-02-24T15:51:01;27.98;;;11.82;;
25319;SDS011;13256;49.012;8.610;2023-02-24T15:53:31;27.52;;;11.05;;
25319;SDS011;13256;49.012;8.610;2023-02-24T15:56:01;27.20;;;11.57;;
25319;SDS011;13256;49.012;8.610;2023-02-24T15:58:33;27.58;;;10.85;;
25319;SDS011;13256;49.012;8.610;2023-02-24T16:07:20;26.65;;;12.68;;
25319;SDS011;13256;49.012;8.610;2023-02-24T16:10:02;28.27;;;11.00;;
25319;SDS011;13256;49.012;8.610;2023-02-24T16:21:46;25.25;;;10.95;;
25319;SDS011;13256;49.012;8.610;2023-02-24T16:37:51;34.70;;;11.75;;
25319;SDS011;13256;49.012;8.610;2023-02-24T16:40:03;26.00;;;11.23;;
25319;SDS011;13256;49.012;8.610;2023-02-24T16:48:43;29.20;;;13.05;;
25319;SDS011;13256;49.012;8.610;2023-02-24T17:03:45;33.55;;;13.73;;
25319;SDS011;13256;49.012;8.610;2023-02-24T17:27:43;33.03;;;12.98;;
25319;SDS011;13256;49.012;8.610;2023-02-24T17:30:12;29.20;;;11.27;;
25319;SDS011;13256;49.012;8.610;2023-02-24T17:35:40;31.55;;;12.85;;
25319;SDS011;13256;49.012;8.610;2023-02-24T17:41:16;31.13;;;12.73;;
25319;SDS011;13256;49.012;8.610;2023-02-24T17:43:54;26.27;;;12.57;;
25319;SDS011;13256;49.012;8.610;2023-02-24T17:52:04;35.17;;;14.70;;
25319;SDS011;13256;49.012;8.610;2023-02-24T17:54:32;39.55;;;14.10;;
25319;SDS011;13256;49.012;8.610;2023-02-24T17:59:42;31.88;;;13.77;;
25319;SDS011;13256;49.012;8.610;2023-02-24T18:02:15;30.45;;;13.45;;
25319;SDS011;13256;49.012;8.610;2023-02-24T18:04:47;31.88;;;13.10;;
25319;SDS011;13256;49.012;8.610;2023-02-24T18:07:15;31.35;;;13.40;;
25319;SDS011;13256;49.012;8.610;2023-02-24T18:21:43;31.85;;;12.65;;
25319;SDS011;13256;49.012;8.610;2023-02-24T18:27:04;40.50;;;14.70;;
25319;SDS011;13256;49.012;8.610;2023-02-24T18:29:32;46.28;;;15.65;;
25319;SDS011;13256;49.012;8.610;2023-02-24T18:48:36;36.53;;;15.23;;
25319;SDS011;13256;49.012;8.610;2023-02-24T18:51:05;37.83;;;15.02;;
25319;SDS011;13256;49.012;8.610;2023-02-24T18:53:37;36.05;;;14.73;;
25319;SDS011;13256;49.012;8.610;2023-02-24T18:56:08;35.95;;;13.70;;
25319;SDS011;13256;49.012;8.610;2023-02-24T18:58:40;35.17;;;13.77;;
25319;SDS011;13256;49.012;8.610;2023-02-24T19:01:10;37.70;;;14.80;;
25319;SDS011;13256;49.012;8.610;2023-02-24T19:03:39;29.10;;;13.13;;
25319;SDS011;13256;49.012;8.610;2023-02-24T19:06:07;38.33;;;14.57;;
25319;SDS011;13256;49.012;8.610;2023-02-24T19:08:36;37.08;;;14.65;;
25319;SDS011;13256;49.012;8.610;2023-02-24T19:11:12;39.63;;;16.45;;
25319;SDS011;13256;49.012;8.610;2023-02-24T19:13:44;37.88;;;14.55;;
25319;SDS011;13256;49.012;8.610;2023-02-24T19:16:15;37.45;;;14.70;;
25319;SDS011;13256;49.012;8.610;2023-02-24T19:18:44;39.08;;;13.98;;
25319;SDS011;13256;49.012;8.610;2023-02-24T19:21:22;33.17;;;14.10;;
25319;SDS011;13256;49.012;8.610;2023-02-24T19:23:49;34.25;;;14.40;;
25319;SDS011;13256;49.012;8.610;2023-02-24T19:26:20;38.08;;;13.18;;
25319;SDS011;13256;49.012;8.610;2023-02-24T19:28:50;34.50;;;13.95;;
25319;SDS011;13256;49.012;8.610;2023-02-24T19:31:21;31.67;;;13.27;;
25319;SDS011;13256;49.012;8.610;2023-02-24T19:33:54;39.35;;;14.40;;
25319;SDS011;13256;49.012;8.610;2023-02-24T19:36:23;37.08;;;13.95;;
25319;SDS011;13256;49.012;8.610;2023-02-24T19:38:51;30.35;;;13.57;;
25319;SDS011;13256;49.012;8.610;2023-02-24T19:41:18;36.30;;;13.38;;
25319;SDS011;13256;49.012;8.610;2023-02-24T19:43:45;36.83;;;13.80;;
25319;SDS011;13256;49.012;8.610;2023-02-24T19:46:16;37.70;;;14.43;;
25319;SDS011;13256;49.012;8.610;2023-02-24T19:48:44;37.13;;;15.30;;
25319;SDS011;13256;49.012;8.610;2023-02-24T19:51:15;40.40;;;14.77;;
25319;SDS011;13256;49.012;8.610;2023-02-24T19:53:46;36.47;;;14.55;;
25319;SDS011;13256;49.012;8.610;2023-02-24T19:56:46;35.63;;;14.25;;
25319;SDS011;13256;49.012;8.610;2023-02-24T19:59:15;34.22;;;13.88;;
25319;SDS011;13256;49.012;8.610;2023-02-24T20:01:48;34.85;;;12.93;;
25319;SDS011;13256;49.012;8.610;2023-02-24T20:04:19;35.40;;;14.27;;
25319;SDS011;13256;49.012;8.610;2023-02-24T20:06:50;35.78;;;14.32;;
25319;SDS011;13256;49.012;8.610;2023-02-24T20:09:44;39.40;;;14.05;;
25319;SDS011;13256;49.012;8.610;2023-02-24T20:12:14;30.17;;;12.68;;
25319;SDS011;13256;49.012;8.610;2023-02-24T20:14:41;33.17;;;12.93;;
25319;SDS011;13256;49.012;8.610;2023-02-24T20:17:10;33.08;;;13.18;;
25319;SDS011;13256;49.012;8.610;2023-02-24T20:19:39;36.95;;;13.35;;
25319;SDS011;13256;49.012;8.610;2023-02-24T20:22:06;32.50;;;13.95;;
25319;SDS011;13256;49.012;8.610;2023-02-24T20:24:33;32.90;;;11.70;;
25319;SDS011;13256;49.012;8.610;2023-02-24T20:27:03;28.38;;;12.20;;
25319;SDS011;13256;49.012;8.610;2023-02-24T20:29:32;31.60;;;11.88;;
25319;SDS011;13256;49.012;8.610;2023-02-24T20:32:01;28.33;;;11.40;;
25319;SDS011;13256;49.012;8.610;2023-02-24T20:34:28;27.00;;;11.13;;
25319;SDS011;13256;49.012;8.610;2023-02-24T20:36:55;29.23;;;11.63;;
25319;SDS011;13256;49.012;8.610;2023-02-24T20:39:24;27.73;;;11.40;;
25319;SDS011;13256;49.012;8.610;2023-02-24T20:41:53;32.95;;;11.13;;
25319;SDS011;13256;49.012;8.610;2023-02-24T20:44:20;25.38;;;10.65;;
25319;SDS011;13256;49.012;8.610;2023-02-24T20:46:52;29.63;;;11.38;;
25319;SDS011;13256;49.012;8.610;2023-02-24T20:49:27;27.30;;;10.82;;
25319;SDS011;13256;49.012;8.610;2023-02-24T20:51:54;13.15;;;5.85;;
25319;SDS011;13256;49.012;8.610;2023-02-24T20:54:21;7.57;;;3.17;;
25319;SDS011;13256;49.012;8.610;2023-02-24T20:56:55;5.00;;;2.63;;
25319;SDS011;13256;49.012;8.610;2023-02-24T20:59:22;5.22;;;2.60;;
25319;SDS011;13256;49.012;8.610;2023-02-24T21:01:51;3.47;;;1.98;;
25319;SDS011;13256;49.012;8.610;2023-02-24T21:04:21;6.30;;;2.45;;
25319;SDS011;13256;49.012;8.610;2023-02-24T21:06:52;4.43;;;2.17;;
25319;SDS011;13256;49.012;8.610;2023-02-24T21:09:44;3.75;;;2.00;;
25319;SDS011;13256;49.012;8.610;2023-02-24T21:12:11;3.78;;;2.50;;
25319;SDS011;13256;49.012;8.610;2023-02-24T21:14:42;3.75;;;2.20;;
25319;SDS011;13256;49.012;8.610;2023-02-24T21:17:34;3.42;;;2.15;;
25319;SDS011;13256;49.012;8.610;2023-02-24T21:20:05;5.63;;;2.17;;
25319;SDS011;13256;49.012;8.610;2023-02-24T21:22:38;4.13;;;2.20;;
25319;SDS011;13256;49.012;8.610;2023-02-24T21:25:10;5.60;;;2.65;;
25319;SDS011;13256;49.012;8.610;2023-02-24T21:27:39;5.53;;;2.05;;
25319;SDS011;13256;49.012;8.610;2023-02-24T21:30:12;12.50;;;5.00;;
25319;SDS011;13256;49.012;8.610;2023-02-24T21:32:45;11.88;;;5.45;;
25319;SDS011;13256;49.012;8.610;2023-02-24T21:35:16;7.55;;;2.92;;
25319;SDS011;13256;49.012;8.610;2023-02-24T21:37:43;7.05;;;3.50;;
25319;SDS011;13256;49.012;8.610;2023-02-24T21:40:13;6.00;;;3.47;;
25319;SDS011;13256;49.012;8.610;2023-02-24T21:43:06;8.43;;;4.35;;
25319;SDS011;13256;49.012;8.610;2023-02-24T21:45:34;5.57;;;3.17;;
25319;SDS011;13256;49.012;8.610;2023-02-24T21:48:02;12.20;;;4.60;;
25319;SDS011;13256;49.012;8.610;2023-02-24T21:50:30;11.68;;;4.55;;
25319;SDS011;13256;49.012;8.610;2023-02-24T21:52:58;5.22;;;3.05;;
25319;SDS011;13256;49.012;8.610;2023-02-24T21:55:26;8.40;;;3.97;;
25319;SDS011;13256;49.012;8.610;2023-02-24T21:58:19;9.60;;;4.40;;
25319;SDS011;13256;49.012;8.610;2023-02-24T22:00:53;10.25;;;4.90;;
25319;SDS011;13256;49.012;8.610;2023-02-24T22:03:20;10.38;;;4.22;;
25319;SDS011;13256;49.012;8.610;2023-02-24T22:05:51;9.98;;;4.45;;
25319;SDS011;13256;49.012;8.610;2023-02-24T22:08:18;7.82;;;3.75;;
25319;SDS011;13256;49.012;8.610;2023-02-24T22:10:55;12.02;;;6.03;;
25319;SDS011;13256;49.012;8.610;2023-02-24T22:13:26;6.47;;;3.50;;
25319;SDS011;13256;49.012;8.610;2023-02-24T22:16:22;7.07;;;3.28;;